QTR688 OTHH-RKSI
Flight info
| Callsign | QTR688 |
|---|---|
| Flight time | N/A |
| Altitude | 28000 |
| Route | DATRI L564 BAT/N0484F290 L564 MIGMA/N0489F350 DCT ALROK DCT DEBIN DCT MIDGU M440 TULBU G652 KUSRA/N0479F370 Z465 VUSET R462 EGTAL B505 PG G325 PURPA/K0882S1130 W112 HTN/K0870S1190 W112 TUSLI W187 DNH W621 NIXUK W271 BOTKI W270 DKO/K0865S1250 W69 HUR B339 LADIX W34 VAPGU W100 ORAVA W201 UNSEK A326 DONVO G597 AGAVO/N0473F410 Y644 GONAV GONAV3M |
| Aircraft | A343/H-SDE2E3FGHIJ4J5M1RWXY/LB1D1 |
Departure
| Time | 2026-05-08 06:08 |
|---|---|
| Airport | Hamad International Airport (OTHH) |
Arrival
| Time | N/A |
|---|---|
| Airport | Incheon International Airport (RKSI) |
| Time | Latitude | Longitude | Altitude | Speed | Heading |
|---|---|---|---|---|---|
| 2026-05-08 05:35 | 25.26065 | 51.60907 | 34 ft | 0 kts | 148° |
| 2026-05-08 05:56 | 25.26076 | 51.60899 | 33 ft | 4 kts | 148° |
| 2026-05-08 05:56 | 25.26099 | 51.60883 | 31 ft | 4 kts | 148° |
| 2026-05-08 05:56 | 25.26118 | 51.60871 | 31 ft | 4 kts | 157° |
| 2026-05-08 05:57 | 25.26143 | 51.60865 | 32 ft | 4 kts | 193° |
| 2026-05-08 05:57 | 25.26163 | 51.60879 | 31 ft | 4 kts | 244° |
| 2026-05-08 05:57 | 25.26173 | 51.60905 | 30 ft | 4 kts | 248° |
| 2026-05-08 05:57 | 25.26176 | 51.60913 | 32 ft | 0 kts | 248° |
| 2026-05-08 06:03 | 25.26170 | 51.60897 | 34 ft | 6 kts | 248° |
| 2026-05-08 06:03 | 25.26145 | 51.60827 | 34 ft | 13 kts | 248° |
| 2026-05-08 06:04 | 25.26109 | 51.60732 | 34 ft | 13 kts | 246° |
| 2026-05-08 06:04 | 25.26072 | 51.60639 | 34 ft | 13 kts | 246° |
| 2026-05-08 06:04 | 25.26029 | 51.60553 | 33 ft | 11 kts | 213° |
| 2026-05-08 06:04 | 25.25968 | 51.60560 | 33 ft | 9 kts | 166° |
| 2026-05-08 06:05 | 25.25910 | 51.60581 | 33 ft | 9 kts | 159° |
| 2026-05-08 06:05 | 25.25853 | 51.60607 | 33 ft | 10 kts | 157° |
| 2026-05-08 06:05 | 25.25779 | 51.60641 | 33 ft | 12 kts | 157° |
| 2026-05-08 06:05 | 25.25696 | 51.60678 | 33 ft | 13 kts | 158° |
| 2026-05-08 06:06 | 25.25616 | 51.60690 | 33 ft | 11 kts | 209° |
| 2026-05-08 06:06 | 25.25581 | 51.60615 | 30 ft | 12 kts | 258° |
| 2026-05-08 06:06 | 25.25583 | 51.60525 | 29 ft | 10 kts | 314° |
| 2026-05-08 06:06 | 25.25664 | 51.60487 | 29 ft | 24 kts | 338° |
| 2026-05-08 06:07 | 25.25968 | 51.60352 | 32 ft | 71 kts | 338° |
| 2026-05-08 06:07 | 25.26561 | 51.60090 | 29 ft | 112 kts | 338° |
| 2026-05-08 06:07 | 25.27395 | 51.59724 | 30 ft | 144 kts | 338° |
| 2026-05-08 06:07 | 25.28400 | 51.59274 | 229 ft | 157 kts | 338° |
| 2026-05-08 06:08 | 25.29390 | 51.58820 | 636 ft | 159 kts | 339° |
| 2026-05-08 06:08 | 25.30465 | 51.58342 | 872 ft | 175 kts | 339° |
| 2026-05-08 06:08 | 25.31590 | 51.57831 | 1400 ft | 173 kts | 340° |
| 2026-05-08 06:08 | 25.32678 | 51.57321 | 1980 ft | 168 kts | 340° |
| 2026-05-08 06:09 | 25.33762 | 51.56815 | 2395 ft | 172 kts | 341° |
| 2026-05-08 06:09 | 25.34876 | 51.56305 | 2832 ft | 176 kts | 341° |
| 2026-05-08 06:09 | 25.36053 | 51.55783 | 3137 ft | 188 kts | 342° |
| 2026-05-08 06:09 | 25.37325 | 51.55239 | 3338 ft | 205 kts | 341° |
| 2026-05-08 06:10 | 25.38737 | 51.54636 | 3490 ft | 230 kts | 340° |
| 2026-05-08 06:10 | 25.40262 | 51.53970 | 3802 ft | 246 kts | 340° |
| 2026-05-08 06:10 | 25.41887 | 51.53251 | 4253 ft | 256 kts | 339° |
| 2026-05-08 06:10 | 25.43560 | 51.52510 | 4864 ft | 259 kts | 338° |
| 2026-05-08 06:11 | 25.45261 | 51.51747 | 5349 ft | 269 kts | 337° |
| 2026-05-08 06:11 | 25.46900 | 51.50689 | 5901 ft | 275 kts | 317° |
| 2026-05-08 06:11 | 25.48031 | 51.48984 | 6439 ft | 279 kts | 290° |
| 2026-05-08 06:11 | 25.48370 | 51.46899 | 6968 ft | 281 kts | 268° |
| 2026-05-08 06:12 | 25.48297 | 51.44718 | 7520 ft | 286 kts | 265° |
| 2026-05-08 06:12 | 25.48171 | 51.42514 | 8133 ft | 288 kts | 264° |
| 2026-05-08 06:12 | 25.48051 | 51.40288 | 8747 ft | 291 kts | 265° |
| 2026-05-08 06:12 | 25.47939 | 51.38039 | 9375 ft | 294 kts | 265° |
| 2026-05-08 06:13 | 25.47832 | 51.35761 | 9977 ft | 298 kts | 265° |
| 2026-05-08 06:13 | 25.47726 | 51.33461 | 10563 ft | 301 kts | 264° |
| 2026-05-08 06:13 | 25.47621 | 51.31127 | 11045 ft | 307 kts | 264° |
| 2026-05-08 06:13 | 25.47363 | 51.28774 | 11582 ft | 308 kts | 251° |
| 2026-05-08 06:14 | 25.46333 | 51.26734 | 12162 ft | 305 kts | 223° |
| 2026-05-08 06:14 | 25.44532 | 51.25495 | 12487 ft | 312 kts | 193° |
| 2026-05-08 06:14 | 25.42348 | 51.25237 | 12737 ft | 323 kts | 177° |
| 2026-05-08 06:14 | 25.40051 | 51.25294 | 12962 ft | 336 kts | 175° |
| 2026-05-08 06:15 | 25.37665 | 51.25374 | 13174 ft | 350 kts | 176° |
| 2026-05-08 06:15 | 25.35186 | 51.25437 | 13392 ft | 363 kts | 176° |
| 2026-05-08 06:15 | 25.32615 | 51.25489 | 13608 ft | 376 kts | 177° |
| 2026-05-08 06:15 | 25.29965 | 51.25530 | 13803 ft | 386 kts | 177° |
| 2026-05-08 06:16 | 25.27279 | 51.25725 | 14233 ft | 387 kts | 168° |
| 2026-05-08 06:16 | 25.24686 | 51.26527 | 14713 ft | 387 kts | 159° |
| 2026-05-08 06:16 | 25.22164 | 51.27575 | 15198 ft | 388 kts | 158° |
| 2026-05-08 06:16 | 25.19675 | 51.28640 | 15670 ft | 390 kts | 158° |
| 2026-05-08 06:17 | 25.14579 | 51.30807 | 16597 ft | 395 kts | 159° |
| 2026-05-08 06:17 | 25.11999 | 51.31898 | 17001 ft | 400 kts | 159° |
| 2026-05-08 06:17 | 25.09382 | 51.33002 | 17391 ft | 404 kts | 159° |
| 2026-05-08 06:18 | 25.06749 | 51.34111 | 17929 ft | 405 kts | 159° |
| 2026-05-08 06:18 | 25.04115 | 51.35226 | 18416 ft | 406 kts | 159° |
| 2026-05-08 06:18 | 25.01455 | 51.36344 | 18781 ft | 410 kts | 160° |
| 2026-05-08 06:18 | 24.98773 | 51.37470 | 19156 ft | 413 kts | 160° |
| 2026-05-08 06:19 | 24.96081 | 51.38599 | 19591 ft | 415 kts | 160° |
| 2026-05-08 06:19 | 24.93389 | 51.39811 | 19948 ft | 420 kts | 155° |
| 2026-05-08 06:19 | 24.90871 | 51.41476 | 20320 ft | 425 kts | 147° |
| 2026-05-08 06:19 | 24.88437 | 51.43358 | 20652 ft | 429 kts | 146° |
| 2026-05-08 06:20 | 24.86004 | 51.45276 | 21028 ft | 432 kts | 146° |
| 2026-05-08 06:20 | 24.83579 | 51.47184 | 21384 ft | 434 kts | 146° |
| 2026-05-08 06:20 | 24.81105 | 51.49123 | 21737 ft | 437 kts | 146° |
| 2026-05-08 06:20 | 24.78614 | 51.51072 | 22089 ft | 440 kts | 146° |
| 2026-05-08 06:21 | 24.76070 | 51.52975 | 22419 ft | 442 kts | 150° |
| 2026-05-08 06:21 | 24.73323 | 51.54485 | 22730 ft | 442 kts | 161° |
| 2026-05-08 06:21 | 24.70364 | 51.55407 | 23087 ft | 441 kts | 172° |
| 2026-05-08 06:21 | 24.67317 | 51.55690 | 23436 ft | 440 kts | 182° |
| 2026-05-08 06:22 | 24.64272 | 51.55377 | 23727 ft | 441 kts | 189° |
| 2026-05-08 06:22 | 24.61241 | 51.54795 | 24030 ft | 442 kts | 192° |
| 2026-05-08 06:22 | 24.58266 | 51.54108 | 24330 ft | 443 kts | 193° |
| 2026-05-08 06:22 | 24.55251 | 51.53362 | 24648 ft | 445 kts | 193° |
| 2026-05-08 06:23 | 24.52233 | 51.52604 | 24951 ft | 446 kts | 194° |
| 2026-05-08 06:23 | 24.49206 | 51.51852 | 25259 ft | 448 kts | 193° |
| 2026-05-08 06:23 | 24.46153 | 51.51108 | 25565 ft | 449 kts | 193° |
| 2026-05-08 06:23 | 24.43081 | 51.50371 | 25869 ft | 451 kts | 193° |
| 2026-05-08 06:24 | 24.40003 | 51.49642 | 26130 ft | 453 kts | 193° |
| 2026-05-08 06:24 | 24.36944 | 51.48921 | 26350 ft | 456 kts | 193° |
| 2026-05-08 06:24 | 24.33835 | 51.48191 | 26643 ft | 458 kts | 193° |
| 2026-05-08 06:24 | 24.30713 | 51.47459 | 26941 ft | 459 kts | 193° |
| 2026-05-08 06:25 | 24.27575 | 51.46723 | 27221 ft | 461 kts | 193° |
| 2026-05-08 06:25 | 24.24436 | 51.45990 | 27498 ft | 462 kts | 193° |
| 2026-05-08 06:25 | 24.21237 | 51.45490 | 27779 ft | 465 kts | 185° |
| 2026-05-08 06:25 | 24.17992 | 51.45334 | 28026 ft | 468 kts | 183° |
| 2026-05-08 06:26 | 24.14726 | 51.45279 | 28266 ft | 470 kts | 182° |
| 2026-05-08 06:26 | 24.11478 | 51.45279 | 28470 ft | 473 kts | 181° |
| 2026-05-08 06:26 | 24.08185 | 51.45303 | 28722 ft | 475 kts | 181° |
| 2026-05-08 06:26 | 24.04871 | 51.45334 | 28880 ft | 474 kts | 181° |
| 2026-05-08 06:27 | 23.98354 | 51.45388 | 28893 ft | 464 kts | 181° |
| 2026-05-08 06:27 | 23.91887 | 51.45420 | 28895 ft | 464 kts | 181° |
| 2026-05-08 06:28 | 23.85418 | 51.45441 | 28897 ft | 465 kts | 181° |
| 2026-05-08 06:28 | 23.78947 | 51.45461 | 28898 ft | 465 kts | 181° |
| 2026-05-08 06:29 | 23.72501 | 51.45482 | 28898 ft | 465 kts | 181° |
| 2026-05-08 06:29 | 23.66020 | 51.45504 | 28898 ft | 465 kts | 181° |
| 2026-05-08 06:30 | 23.59533 | 51.45526 | 28897 ft | 466 kts | 181° |
| 2026-05-08 06:30 | 23.53055 | 51.45548 | 28898 ft | 466 kts | 181° |
| 2026-05-08 06:31 | 23.46614 | 51.45571 | 28899 ft | 466 kts | 181° |
| 2026-05-08 06:31 | 23.40122 | 51.45660 | 28892 ft | 466 kts | 180° |
| 2026-05-08 06:32 | 23.33627 | 51.45776 | 28904 ft | 467 kts | 180° |
| 2026-05-08 06:32 | 23.27117 | 51.45886 | 28902 ft | 467 kts | 180° |
| 2026-05-08 06:33 | 23.20614 | 51.45991 | 28902 ft | 467 kts | 180° |
| 2026-05-08 06:33 | 23.14142 | 51.46082 | 28901 ft | 467 kts | 180° |
| 2026-05-08 06:34 | 23.07637 | 51.46165 | 28908 ft | 468 kts | 180° |
| 2026-05-08 06:34 | 23.01109 | 51.46251 | 28908 ft | 468 kts | 180° |
| 2026-05-08 06:35 | 22.94587 | 51.46340 | 28908 ft | 468 kts | 180° |
| 2026-05-08 06:35 | 22.88126 | 51.47247 | 28909 ft | 472 kts | 165° |
| 2026-05-08 06:36 | 22.82153 | 51.50381 | 29148 ft | 487 kts | 146° |
| 2026-05-08 06:36 | 22.79630 | 51.52797 | 29376 ft | 493 kts | 135° |
| 2026-05-08 06:36 | 22.77345 | 51.55581 | 29661 ft | 495 kts | 133° |
| 2026-05-08 06:37 | 22.75149 | 51.58460 | 29957 ft | 495 kts | 131° |
| 2026-05-08 06:37 | 22.72996 | 51.61375 | 30182 ft | 496 kts | 131° |
| 2026-05-08 06:37 | 22.70850 | 51.64299 | 30453 ft | 495 kts | 131° |
| 2026-05-08 06:37 | 22.68705 | 51.67210 | 30733 ft | 494 kts | 131° |
| 2026-05-08 06:38 | 22.66554 | 51.70106 | 31004 ft | 492 kts | 131° |
| 2026-05-08 06:38 | 22.64397 | 51.72990 | 31272 ft | 491 kts | 131° |
| 2026-05-08 06:38 | 22.62239 | 51.75858 | 31539 ft | 490 kts | 132° |
| 2026-05-08 06:38 | 22.60086 | 51.78711 | 31801 ft | 489 kts | 132° |
| 2026-05-08 06:39 | 22.57936 | 51.81553 | 32052 ft | 488 kts | 132° |
| 2026-05-08 06:39 | 22.55786 | 51.84394 | 32273 ft | 487 kts | 132° |
| 2026-05-08 06:39 | 22.53640 | 51.87228 | 32516 ft | 486 kts | 132° |
| 2026-05-08 06:39 | 22.51501 | 51.90053 | 32773 ft | 485 kts | 132° |
| 2026-05-08 06:40 | 22.49363 | 51.92875 | 32990 ft | 484 kts | 132° |
| 2026-05-08 06:40 | 22.47259 | 51.95652 | 33248 ft | 483 kts | 132° |
| 2026-05-08 06:40 | 22.45126 | 51.98466 | 33485 ft | 482 kts | 132° |
| 2026-05-08 06:40 | 22.42998 | 52.01273 | 33706 ft | 481 kts | 132° |
| 2026-05-08 06:41 | 22.40877 | 52.04069 | 33924 ft | 480 kts | 132° |
| 2026-05-08 06:41 | 22.38756 | 52.06860 | 34087 ft | 480 kts | 132° |
| 2026-05-08 06:41 | 22.36638 | 52.09646 | 34246 ft | 479 kts | 132° |
| 2026-05-08 06:41 | 22.34522 | 52.12429 | 34405 ft | 479 kts | 132° |
| 2026-05-08 06:42 | 22.32431 | 52.15177 | 34563 ft | 479 kts | 132° |
| 2026-05-08 06:42 | 22.30312 | 52.17961 | 34708 ft | 478 kts | 132° |
| 2026-05-08 06:42 | 22.28200 | 52.20735 | 34841 ft | 479 kts | 132° |
| 2026-05-08 06:42 | 22.26077 | 52.23521 | 34882 ft | 481 kts | 132° |
| 2026-05-08 06:43 | 22.21808 | 52.29119 | 34883 ft | 482 kts | 131° |
| 2026-05-08 06:43 | 22.17549 | 52.34701 | 34886 ft | 481 kts | 131° |
| 2026-05-08 06:44 | 22.13320 | 52.40235 | 34890 ft | 481 kts | 132° |
| 2026-05-08 06:44 | 22.09061 | 52.45804 | 34889 ft | 481 kts | 131° |
| 2026-05-08 06:45 | 22.04805 | 52.51361 | 34887 ft | 480 kts | 131° |
| 2026-05-08 06:45 | 22.00549 | 52.56916 | 34886 ft | 481 kts | 131° |
| 2026-05-08 06:46 | 21.96289 | 52.62471 | 34886 ft | 481 kts | 131° |
| 2026-05-08 06:46 | 21.92299 | 52.68256 | 34888 ft | 484 kts | 121° |
| 2026-05-08 06:47 | 21.89990 | 52.75073 | 34888 ft | 490 kts | 101° |
| 2026-05-08 06:47 | 21.89320 | 52.82423 | 34887 ft | 495 kts | 95° |
| 2026-05-08 06:48 | 21.88957 | 52.89802 | 34885 ft | 496 kts | 94° |
| 2026-05-08 06:48 | 21.88600 | 52.97234 | 34887 ft | 496 kts | 95° |
| 2026-05-08 06:49 | 21.88203 | 53.04611 | 34884 ft | 496 kts | 95° |
| 2026-05-08 06:49 | 21.87778 | 53.12029 | 34884 ft | 496 kts | 95° |
| 2026-05-08 06:50 | 21.87345 | 53.19451 | 34887 ft | 496 kts | 95° |
| 2026-05-08 06:50 | 21.86915 | 53.26813 | 34886 ft | 496 kts | 95° |
| 2026-05-08 06:51 | 21.86481 | 53.34211 | 34887 ft | 496 kts | 95° |
| 2026-05-08 06:51 | 21.86118 | 53.40364 | 34885 ft | 495 kts | 95° |
| 2026-05-08 06:52 | 21.85676 | 53.47763 | 34887 ft | 494 kts | 95° |
| 2026-05-08 06:52 | 21.85232 | 53.55159 | 34886 ft | 494 kts | 95° |
| 2026-05-08 06:53 | 21.84786 | 53.62544 | 34883 ft | 494 kts | 95° |
| 2026-05-08 06:53 | 21.84336 | 53.69937 | 34884 ft | 494 kts | 95° |
| 2026-05-08 06:54 | 21.83882 | 53.77320 | 34884 ft | 494 kts | 95° |
| 2026-05-08 06:54 | 21.83425 | 53.84712 | 34884 ft | 495 kts | 95° |
| 2026-05-08 06:55 | 21.82964 | 53.92098 | 34886 ft | 495 kts | 95° |
| 2026-05-08 06:55 | 21.82500 | 53.99484 | 34884 ft | 495 kts | 95° |
| 2026-05-08 06:56 | 21.82037 | 54.06821 | 34882 ft | 495 kts | 95° |
| 2026-05-08 06:56 | 21.81567 | 54.14217 | 34882 ft | 495 kts | 95° |
| 2026-05-08 06:57 | 21.81092 | 54.21622 | 34878 ft | 495 kts | 95° |
| 2026-05-08 06:57 | 21.80618 | 54.28968 | 34881 ft | 495 kts | 95° |
| 2026-05-08 06:58 | 21.80138 | 54.36349 | 34880 ft | 495 kts | 95° |
| 2026-05-08 06:58 | 21.79655 | 54.43742 | 34881 ft | 495 kts | 95° |
| 2026-05-08 06:59 | 21.79695 | 54.51141 | 34882 ft | 496 kts | 82° |
| 2026-05-08 06:59 | 21.80485 | 54.54758 | 34881 ft | 497 kts | 71° |
| 2026-05-08 06:59 | 21.81866 | 54.58166 | 34883 ft | 499 kts | 60° |
| 2026-05-08 07:00 | 21.86019 | 54.64159 | 34881 ft | 502 kts | 49° |
| 2026-05-08 07:00 | 21.90612 | 54.69783 | 34883 ft | 504 kts | 48° |
| 2026-05-08 07:01 | 21.95283 | 54.75423 | 34879 ft | 504 kts | 48° |
| 2026-05-08 07:01 | 21.99920 | 54.81094 | 34881 ft | 504 kts | 48° |
| 2026-05-08 07:02 | 22.04530 | 54.86785 | 34879 ft | 504 kts | 49° |
| 2026-05-08 07:02 | 22.09133 | 54.92487 | 34878 ft | 504 kts | 49° |
| 2026-05-08 07:03 | 22.13731 | 54.98187 | 34875 ft | 504 kts | 49° |
| 2026-05-08 07:03 | 22.18302 | 55.03857 | 34876 ft | 504 kts | 49° |
| 2026-05-08 07:04 | 22.22904 | 55.09569 | 34879 ft | 504 kts | 49° |
| 2026-05-08 07:04 | 22.27500 | 55.15280 | 34875 ft | 504 kts | 49° |
| 2026-05-08 07:05 | 22.32090 | 55.20991 | 34878 ft | 504 kts | 49° |
| 2026-05-08 07:05 | 22.36688 | 55.26717 | 34878 ft | 505 kts | 49° |
| 2026-05-08 07:06 | 22.41265 | 55.32424 | 34881 ft | 505 kts | 49° |
| 2026-05-08 07:06 | 22.45440 | 55.38526 | 34880 ft | 504 kts | 62° |
| 2026-05-08 07:07 | 22.48340 | 55.45410 | 34879 ft | 503 kts | 67° |
| 2026-05-08 07:07 | 22.50972 | 55.52416 | 34879 ft | 503 kts | 68° |
| 2026-05-08 07:08 | 22.53550 | 55.59405 | 34884 ft | 503 kts | 68° |
| 2026-05-08 07:08 | 22.56158 | 55.66425 | 34884 ft | 503 kts | 68° |
| 2026-05-08 07:09 | 22.58779 | 55.73446 | 34887 ft | 503 kts | 68° |
| 2026-05-08 07:09 | 22.61402 | 55.80467 | 34886 ft | 503 kts | 68° |
| 2026-05-08 07:10 | 22.64022 | 55.87495 | 34884 ft | 503 kts | 68° |
| 2026-05-08 07:10 | 22.66640 | 55.94525 | 34886 ft | 503 kts | 68° |
| 2026-05-08 07:11 | 22.69237 | 56.01513 | 34895 ft | 503 kts | 68° |
| 2026-05-08 07:11 | 22.71846 | 56.08544 | 34895 ft | 503 kts | 68° |
| 2026-05-08 07:12 | 22.74456 | 56.15587 | 34895 ft | 503 kts | 68° |
| 2026-05-08 07:12 | 22.77058 | 56.22623 | 34894 ft | 503 kts | 68° |
| 2026-05-08 07:13 | 22.79659 | 56.29665 | 34895 ft | 503 kts | 68° |
| 2026-05-08 07:13 | 22.82235 | 56.36711 | 34891 ft | 503 kts | 71° |
| 2026-05-08 07:14 | 22.83979 | 56.44000 | 34907 ft | 502 kts | 78° |
| 2026-05-08 07:14 | 22.85423 | 56.51408 | 34906 ft | 502 kts | 79° |
| 2026-05-08 07:15 | 22.86808 | 56.58827 | 34912 ft | 502 kts | 79° |
| 2026-05-08 07:15 | 22.88198 | 56.66250 | 34920 ft | 502 kts | 78° |
| 2026-05-08 07:16 | 22.89596 | 56.73671 | 34931 ft | 502 kts | 78° |
| 2026-05-08 07:16 | 22.90986 | 56.81039 | 34931 ft | 502 kts | 78° |
| 2026-05-08 07:17 | 22.92383 | 56.88461 | 34931 ft | 502 kts | 79° |
| 2026-05-08 07:17 | 22.93776 | 56.95888 | 34937 ft | 502 kts | 79° |
| 2026-05-08 07:18 | 22.95167 | 57.03326 | 34937 ft | 502 kts | 79° |
| 2026-05-08 07:18 | 22.96546 | 57.10716 | 34938 ft | 502 kts | 79° |
| 2026-05-08 07:19 | 22.97926 | 57.18134 | 34930 ft | 501 kts | 79° |
| 2026-05-08 07:19 | 22.99303 | 57.25565 | 34930 ft | 501 kts | 79° |
| 2026-05-08 07:20 | 23.01066 | 57.32883 | 34929 ft | 501 kts | 71° |
| 2026-05-08 07:20 | 23.03431 | 57.39952 | 34924 ft | 502 kts | 69° |
| 2026-05-08 07:21 | 23.05914 | 57.47045 | 34927 ft | 502 kts | 69° |
| 2026-05-08 07:21 | 23.08398 | 57.54130 | 34921 ft | 502 kts | 69° |
| 2026-05-08 07:22 | 23.10868 | 57.61231 | 34911 ft | 502 kts | 69° |
| 2026-05-08 07:22 | 23.13327 | 57.68331 | 34913 ft | 502 kts | 69° |
| 2026-05-08 07:23 | 23.15780 | 57.75438 | 34893 ft | 502 kts | 69° |
| 2026-05-08 07:23 | 23.18235 | 57.82554 | 34872 ft | 502 kts | 69° |
| 2026-05-08 07:24 | 23.20685 | 57.89663 | 34870 ft | 502 kts | 69° |
| 2026-05-08 07:24 | 23.23130 | 57.96778 | 34855 ft | 503 kts | 69° |
| 2026-05-08 07:25 | 23.25576 | 58.03860 | 34846 ft | 504 kts | 68° |
| 2026-05-08 07:26 | 23.29635 | 58.14413 | 34826 ft | 503 kts | 66° |
| 2026-05-08 07:26 | 23.32376 | 58.21434 | 34814 ft | 503 kts | 67° |
| 2026-05-08 07:27 | 23.35059 | 58.28414 | 34806 ft | 502 kts | 67° |
| 2026-05-08 07:27 | 23.37737 | 58.35431 | 34807 ft | 502 kts | 67° |
| 2026-05-08 07:28 | 23.40553 | 58.42393 | 34941 ft | 501 kts | 60° |
| 2026-05-08 07:28 | 23.42450 | 58.45567 | 35138 ft | 500 kts | 52° |
| 2026-05-08 07:28 | 23.44550 | 58.48585 | 35297 ft | 499 kts | 51° |
| 2026-05-08 07:28 | 23.46713 | 58.51550 | 35466 ft | 499 kts | 50° |
| 2026-05-08 07:29 | 23.48906 | 58.54483 | 35632 ft | 498 kts | 50° |
| 2026-05-08 07:29 | 23.51108 | 58.57401 | 35766 ft | 498 kts | 50° |
| 2026-05-08 07:29 | 23.53311 | 58.60321 | 35899 ft | 498 kts | 50° |
| 2026-05-08 07:29 | 23.55482 | 58.63207 | 36050 ft | 498 kts | 50° |
| 2026-05-08 07:30 | 23.57678 | 58.66138 | 36162 ft | 498 kts | 50° |
| 2026-05-08 07:30 | 23.59863 | 58.69064 | 36295 ft | 498 kts | 50° |
| 2026-05-08 07:30 | 23.62052 | 58.72003 | 36419 ft | 498 kts | 50° |
| 2026-05-08 07:30 | 23.64230 | 58.74930 | 36544 ft | 497 kts | 50° |
| 2026-05-08 07:31 | 23.66408 | 58.77861 | 36668 ft | 497 kts | 50° |
| 2026-05-08 07:31 | 23.70776 | 58.83738 | 36782 ft | 499 kts | 50° |
| 2026-05-08 07:32 | 23.75118 | 58.89589 | 36781 ft | 498 kts | 50° |
| 2026-05-08 07:32 | 23.79474 | 58.95468 | 36783 ft | 498 kts | 50° |
| 2026-05-08 07:33 | 23.83832 | 59.01356 | 36782 ft | 498 kts | 50° |
| 2026-05-08 07:33 | 23.88186 | 59.07243 | 36789 ft | 498 kts | 50° |
| 2026-05-08 07:34 | 23.92397 | 59.13183 | 36783 ft | 498 kts | 57° |
| 2026-05-08 07:34 | 23.95705 | 59.19839 | 36786 ft | 498 kts | 63° |
| 2026-05-08 07:35 | 23.98760 | 59.26635 | 36778 ft | 498 kts | 63° |
| 2026-05-08 07:35 | 24.01773 | 59.33469 | 36776 ft | 498 kts | 63° |
| 2026-05-08 07:36 | 24.04788 | 59.40286 | 36778 ft | 498 kts | 63° |
| 2026-05-08 07:36 | 24.07823 | 59.47107 | 36773 ft | 498 kts | 63° |
| 2026-05-08 07:37 | 24.10860 | 59.53923 | 36772 ft | 498 kts | 63° |
| 2026-05-08 07:37 | 24.13866 | 59.60702 | 36767 ft | 498 kts | 63° |
| 2026-05-08 07:38 | 24.16891 | 59.67540 | 36769 ft | 499 kts | 63° |
| 2026-05-08 07:38 | 24.19913 | 59.74377 | 36761 ft | 499 kts | 63° |
| 2026-05-08 07:39 | 24.22940 | 59.81235 | 36767 ft | 500 kts | 63° |
| 2026-05-08 07:39 | 24.25963 | 59.88095 | 36760 ft | 499 kts | 63° |
| 2026-05-08 07:40 | 24.28968 | 59.94921 | 36760 ft | 500 kts | 63° |
| 2026-05-08 07:40 | 24.31986 | 60.01789 | 36759 ft | 500 kts | 63° |
| 2026-05-08 07:41 | 24.34491 | 60.07496 | 36759 ft | 500 kts | 63° |
| 2026-05-08 07:41 | 24.37504 | 60.14370 | 36763 ft | 500 kts | 63° |
| 2026-05-08 07:42 | 24.40519 | 60.21257 | 36758 ft | 500 kts | 63° |
| 2026-05-08 07:42 | 24.43526 | 60.28136 | 36758 ft | 500 kts | 63° |
| 2026-05-08 07:43 | 24.46510 | 60.34973 | 36756 ft | 500 kts | 63° |
| 2026-05-08 07:43 | 24.49512 | 60.41862 | 36752 ft | 500 kts | 63° |
| 2026-05-08 07:44 | 24.52508 | 60.48746 | 36757 ft | 500 kts | 63° |
| 2026-05-08 07:44 | 24.55504 | 60.55640 | 36751 ft | 500 kts | 63° |
| 2026-05-08 07:45 | 24.57901 | 60.62813 | 36751 ft | 501 kts | 78° |
| 2026-05-08 07:45 | 24.58457 | 60.70438 | 36757 ft | 500 kts | 89° |
| 2026-05-08 07:46 | 24.58483 | 60.78090 | 36759 ft | 500 kts | 90° |
| 2026-05-08 07:46 | 24.58430 | 60.85678 | 36756 ft | 500 kts | 90° |
| 2026-05-08 07:47 | 24.58396 | 60.93313 | 36756 ft | 500 kts | 90° |
| 2026-05-08 07:47 | 24.58382 | 61.00965 | 36759 ft | 500 kts | 90° |
| 2026-05-08 07:48 | 24.58371 | 61.08602 | 36760 ft | 500 kts | 89° |
| 2026-05-08 07:48 | 24.58357 | 61.16251 | 36763 ft | 500 kts | 89° |
| 2026-05-08 07:49 | 24.58337 | 61.23904 | 36757 ft | 500 kts | 89° |
| 2026-05-08 07:49 | 24.58497 | 61.31495 | 36765 ft | 500 kts | 82° |
| 2026-05-08 07:49 | 24.59179 | 61.35223 | 36760 ft | 498 kts | 71° |
| 2026-05-08 07:50 | 24.60270 | 61.38827 | 36756 ft | 498 kts | 69° |
| 2026-05-08 07:50 | 24.62756 | 61.45970 | 36758 ft | 500 kts | 66° |
| 2026-05-08 07:51 | 24.65346 | 61.53067 | 36755 ft | 501 kts | 66° |
| 2026-05-08 07:51 | 24.67925 | 61.60189 | 36761 ft | 501 kts | 66° |
| 2026-05-08 07:52 | 24.70458 | 61.67273 | 36757 ft | 501 kts | 67° |
| 2026-05-08 07:52 | 24.72997 | 61.74412 | 36757 ft | 501 kts | 67° |
| 2026-05-08 07:53 | 24.75532 | 61.81552 | 36761 ft | 501 kts | 67° |
| 2026-05-08 07:53 | 24.78064 | 61.88698 | 36757 ft | 500 kts | 67° |
| 2026-05-08 07:54 | 24.80575 | 61.95793 | 36764 ft | 501 kts | 67° |
| 2026-05-08 07:54 | 24.83103 | 62.02950 | 36760 ft | 501 kts | 67° |
| 2026-05-08 07:55 | 24.85626 | 62.10101 | 36760 ft | 501 kts | 67° |
| 2026-05-08 07:55 | 24.88147 | 62.17259 | 36759 ft | 501 kts | 67° |
| 2026-05-08 07:56 | 24.90652 | 62.24386 | 36766 ft | 501 kts | 67° |
| 2026-05-08 07:56 | 24.93166 | 62.31553 | 36768 ft | 501 kts | 67° |
| 2026-05-08 07:57 | 24.95674 | 62.38716 | 36761 ft | 501 kts | 67° |
| 2026-05-08 07:57 | 24.98178 | 62.45880 | 36767 ft | 501 kts | 67° |
| 2026-05-08 07:58 | 25.00679 | 62.53047 | 36775 ft | 501 kts | 67° |
| 2026-05-08 07:58 | 25.03162 | 62.60174 | 36771 ft | 501 kts | 67° |
| 2026-05-08 07:59 | 25.05660 | 62.67358 | 36768 ft | 501 kts | 67° |
| 2026-05-08 07:59 | 25.08159 | 62.74557 | 36768 ft | 501 kts | 67° |
| 2026-05-08 08:00 | 25.10634 | 62.81701 | 36767 ft | 502 kts | 67° |
| 2026-05-08 08:00 | 25.13126 | 62.88904 | 36772 ft | 503 kts | 66° |
| 2026-05-08 08:01 | 25.15621 | 62.96129 | 36771 ft | 503 kts | 67° |
| 2026-05-08 08:01 | 25.18109 | 63.03351 | 36772 ft | 503 kts | 67° |
| 2026-05-08 08:02 | 25.20594 | 63.10577 | 36771 ft | 503 kts | 67° |
| 2026-05-08 08:02 | 25.23063 | 63.17765 | 36769 ft | 504 kts | 67° |
| 2026-05-08 08:03 | 25.25548 | 63.25014 | 36768 ft | 504 kts | 67° |
| 2026-05-08 08:03 | 25.28834 | 63.31773 | 36775 ft | 496 kts | 49° |
| 2026-05-08 08:03 | 25.31157 | 63.34575 | 36771 ft | 492 kts | 38° |
| 2026-05-08 08:04 | 25.33872 | 63.36839 | 36773 ft | 486 kts | 27° |
| 2026-05-08 08:04 | 25.39932 | 63.40090 | 36768 ft | 485 kts | 19° |
| 2026-05-08 08:05 | 25.46131 | 63.42948 | 36771 ft | 486 kts | 18° |
| 2026-05-08 08:05 | 25.52391 | 63.45807 | 36775 ft | 486 kts | 18° |
| 2026-05-08 08:06 | 25.58625 | 63.48705 | 36772 ft | 486 kts | 18° |
| 2026-05-08 08:06 | 25.64825 | 63.51617 | 36775 ft | 486 kts | 18° |
| 2026-05-08 08:07 | 25.71055 | 63.54552 | 36781 ft | 486 kts | 18° |
| 2026-05-08 08:07 | 25.77279 | 63.57487 | 36776 ft | 486 kts | 18° |
| 2026-05-08 08:08 | 25.83504 | 63.60424 | 36769 ft | 486 kts | 18° |
| 2026-05-08 08:08 | 25.89731 | 63.63364 | 36776 ft | 486 kts | 18° |
| 2026-05-08 08:09 | 25.95916 | 63.66290 | 36778 ft | 486 kts | 18° |
| 2026-05-08 08:09 | 26.02142 | 63.69242 | 36770 ft | 486 kts | 18° |
| 2026-05-08 08:10 | 26.08365 | 63.72179 | 36769 ft | 486 kts | 18° |
| 2026-05-08 08:10 | 26.14590 | 63.75114 | 36779 ft | 485 kts | 18° |
| 2026-05-08 08:11 | 26.20810 | 63.78052 | 36774 ft | 484 kts | 18° |
| 2026-05-08 08:11 | 26.26985 | 63.80977 | 36777 ft | 484 kts | 18° |
| 2026-05-08 08:12 | 26.33192 | 63.83920 | 36769 ft | 484 kts | 18° |
| 2026-05-08 08:12 | 26.39408 | 63.86871 | 36779 ft | 484 kts | 18° |
| 2026-05-08 08:13 | 26.45580 | 63.89804 | 36776 ft | 484 kts | 17° |
| 2026-05-08 08:13 | 26.51769 | 63.92750 | 36786 ft | 482 kts | 17° |
| 2026-05-08 08:14 | 26.57942 | 63.95690 | 36785 ft | 482 kts | 17° |
| 2026-05-08 08:14 | 26.64131 | 63.98642 | 36793 ft | 482 kts | 17° |
| 2026-05-08 08:15 | 26.70272 | 64.01574 | 36795 ft | 482 kts | 17° |
| 2026-05-08 08:15 | 26.76444 | 64.04527 | 36806 ft | 481 kts | 17° |
| 2026-05-08 08:16 | 26.82598 | 64.07473 | 36811 ft | 479 kts | 17° |
| 2026-05-08 08:16 | 26.88733 | 64.10413 | 36817 ft | 479 kts | 17° |
| 2026-05-08 08:17 | 26.94696 | 64.13715 | 36824 ft | 487 kts | 28° |
| 2026-05-08 08:17 | 26.99899 | 64.18705 | 36829 ft | 495 kts | 38° |
| 2026-05-08 08:18 | 27.04757 | 64.24204 | 36841 ft | 496 kts | 40° |
| 2026-05-08 08:18 | 27.09561 | 64.29787 | 36835 ft | 496 kts | 40° |
| 2026-05-08 08:19 | 27.14380 | 64.35362 | 36830 ft | 496 kts | 39° |
| 2026-05-08 08:19 | 27.19176 | 64.40881 | 36838 ft | 496 kts | 39° |